Terminal Aerodrome Forecast
Issued by NWS

Home | Current Version | Previous Version | Text Only | Print | Product List | Glossary On
Versions: 1 2 3 4 5 6 7 8 9 10 11 12 13 14 15 16 17
000
FTUS43 KDVN 111528 AAA
TAFBRL
TAF AMD
KBRL 111528Z 1115/1212 19008KT P6SM BKN150
     FM111700 28015G23KT P6SM SCT120
     FM111900 30015G27KT P6SM BKN080
     FM112300 32018G30KT P6SM OVC035
     FM120500 33017G25KT P6SM SCT035=

USA.gov is the U.S. government's official web portal to all federal, state and local government web resources and services.